Time;durP1;ratioP1;P1;durP2;ratioP2;P2;SDS_P1;SDS_P2;PMS_P1;PMS_P2;Temp;Humidity;BMP_temperature;BMP_pressure;BME280_temperature;BME280_humidity;BME280_pressure;Samples;Min_cycle;Max_cycle;Signal;HPM_P1;HPM_P2
2023/08/05 00:00:29;;;;;;;6.93;3.83;;;17.70;98.00;;;;;;5031053;28;20470;-70
2023/08/05 00:02:56;;;;;;;8.73;4.00;;;17.80;98.00;;;;;;5030991;28;20458;-70
2023/08/05 00:05:23;;;;;;;8.93;4.43;;;17.80;98.00;;;;;;5031077;28;20458;-71
2023/08/05 00:07:52;;;;;;;6.83;3.90;;;17.70;98.00;;;;;;5030971;28;20450;-70
2023/08/05 00:10:19;;;;;;;7.17;3.97;;;17.50;98.00;;;;;;5034733;28;20447;-71
2023/08/05 00:12:46;;;;;;;8.20;4.17;;;17.40;98.00;;;;;;5034576;28;20489;-70
2023/08/05 00:15:13;;;;;;;11.43;4.23;;;17.30;98.00;;;;;;5034634;28;20454;-71
2023/08/05 00:17:40;;;;;;;8.30;3.80;;;17.30;98.00;;;;;;5034455;28;20455;-71
2023/08/05 00:20:11;;;;;;;10.70;3.30;;;17.40;98.00;;;;;;5034410;28;20446;-71
2023/08/05 00:22:38;;;;;;;10.43;4.03;;;17.50;98.00;;;;;;5034319;28;20830;-71
2023/08/05 00:25:08;;;;;;;7.50;3.93;;;17.30;98.00;;;;;;5034317;28;20716;-70
2023/08/05 00:27:35;;;;;;;5.97;3.63;;;17.40;98.00;;;;;;5033163;28;20860;-71
2023/08/05 00:30:03;;;;;;;7.63;4.10;;;17.40;98.00;;;;;;5034396;28;20459;-71
2023/08/05 00:32:34;;;;;;;9.70;3.87;;;17.50;98.00;;;;;;5034184;28;20450;-71
2023/08/05 00:35:01;;;;;;;15.03;3.90;;;17.40;98.00;;;;;;5034105;28;20477;-71
2023/08/05 00:37:28;;;;;;;7.73;3.87;;;17.30;98.00;;;;;;5034210;28;20454;-71
2023/08/05 00:39:55;;;;;;;5.90;3.30;;;17.30;98.00;;;;;;5033927;28;20446;-71
2023/08/05 00:42:24;;;;;;;7.63;3.97;;;17.30;98.00;;;;;;5034053;28;20818;-71
2023/08/05 00:44:51;;;;;;;9.43;3.97;;;17.30;98.00;;;;;;5032933;28;20492;-71
2023/08/05 00:47:24;;;;;;;10.23;4.10;;;17.40;98.00;;;;;;5033914;28;20466;-71
2023/08/05 00:49:53;;;;;;;5.87;3.43;;;17.40;98.00;;;;;;5034002;28;20462;-71
2023/08/05 00:52:23;;;;;;;7.30;3.73;;;17.40;98.00;;;;;;5033910;28;20462;-70
2023/08/05 00:54:51;;;;;;;8.20;4.10;;;17.40;98.00;;;;;;5033999;28;20505;-70
2023/08/05 00:57:20;;;;;;;7.67;3.63;;;17.40;98.00;;;;;;5032576;28;20458;-71
2023/08/05 00:59:48;;;;;;;6.37;3.67;;;17.40;98.00;;;;;;5033853;28;20451;-71
2023/08/05 01:02:16;;;;;;;9.77;4.57;;;17.50;98.00;;;;;;5032824;28;20451;-71
2023/08/05 01:04:43;;;;;;;8.37;3.40;;;17.40;98.00;;;;;;5033823;28;20462;-71
2023/08/05 01:07:12;;;;;;;8.00;3.47;;;17.40;98.00;;;;;;5033584;28;20450;-71
2023/08/05 01:09:40;;;;;;;7.27;3.90;;;17.40;98.00;;;;;;5033328;28;20455;-70
2023/08/05 01:12:08;;;;;;;7.63;3.97;;;17.30;98.00;;;;;;5033818;28;20466;-70
2023/08/05 01:14:35;;;;;;;7.50;3.70;;;17.20;98.00;;;;;;5033420;28;20827;-71
2023/08/05 01:17:07;;;;;;;7.37;3.67;;;17.10;98.00;;;;;;5033437;28;20455;-71
2023/08/05 01:19:35;;;;;;;6.57;3.40;;;17.20;98.00;;;;;;5033127;28;20857;-70
2023/08/05 01:22:11;;;;;;;8.80;3.67;;;17.10;98.00;;;;;;5033270;28;20450;-71
2023/08/05 01:24:48;;;;;;;6.60;3.80;;;17.10;98.00;;;;;;5033226;28;20454;-71
2023/08/05 01:27:17;;;;;;;6.63;3.80;;;17.10;98.00;;;;;;5033345;28;20458;-71
2023/08/05 01:29:44;;;;;;;6.80;3.77;;;17.10;98.00;;;;;;5033151;28;20466;-70
2023/08/05 01:32:13;;;;;;;5.80;3.60;;;17.10;98.00;;;;;;5033320;28;20447;-71
2023/08/05 01:34:41;;;;;;;5.83;3.30;;;17.10;98.00;;;;;;5032897;28;20482;-71
2023/08/05 01:37:08;;;;;;;5.17;3.30;;;17.00;98.00;;;;;;5032981;28;20458;-71
2023/08/05 01:39:36;;;;;;;8.50;3.67;;;17.00;98.00;;;;;;5033052;28;20451;-70
2023/08/05 01:42:03;;;;;;;8.23;3.73;;;17.00;98.00;;;;;;5032928;28;20517;-71
2023/08/05 01:44:32;;;;;;;7.97;4.10;;;17.00;98.00;;;;;;5033058;28;20858;-70
2023/08/05 01:46:58;;;;;;;5.67;3.43;;;17.20;98.00;;;;;;5032942;28;20447;-70
2023/08/05 01:49:31;;;;;;;5.40;3.40;;;17.20;98.00;;;;;;5032774;28;20467;-71
2023/08/05 01:51:58;;;;;;;7.63;3.37;;;17.30;98.00;;;;;;5008950;28;20459;-71
2023/08/05 01:54:25;;;;;;;5.13;3.67;;;17.30;98.00;;;;;;5032776;28;20485;-71
2023/08/05 01:56:52;;;;;;;7.13;3.97;;;17.30;98.00;;;;;;5032941;28;20516;-71
2023/08/05 01:59:19;;;;;;;4.87;3.10;;;17.30;98.00;;;;;;5032798;28;20867;-71
2023/08/05 02:01:48;;;;;;;6.43;3.70;;;17.30;98.00;;;;;;5032650;28;20453;-71
2023/08/05 02:04:15;;;;;;;5.80;3.40;;;17.20;98.00;;;;;;5032420;28;20458;-71
2023/08/05 02:06:43;;;;;;;8.00;3.57;;;17.20;98.00;;;;;;5032503;28;20463;-71
2023/08/05 02:09:10;;;;;;;4.73;3.10;;;17.20;98.00;;;;;;5032282;28;20451;-71
2023/08/05 02:11:37;;;;;;;5.73;3.40;;;17.10;98.00;;;;;;5032410;28;20451;-70
2023/08/05 02:14:04;;;;;;;5.70;3.43;;;17.10;98.00;;;;;;5032255;28;20489;-70
2023/08/05 02:16:34;;;;;;;8.33;3.50;;;17.10;98.00;;;;;;5032395;28;20454;-70
2023/08/05 02:19:02;;;;;;;5.83;3.50;;;17.00;98.00;;;;;;5032131;28;20501;-71
2023/08/05 02:21:29;;;;;;;5.63;3.30;;;17.00;98.00;;;;;;5032319;28;20454;-70
2023/08/05 02:23:57;;;;;;;5.57;3.27;;;16.90;98.00;;;;;;5032294;28;20455;-71
2023/08/05 02:26:24;;;;;;;5.27;3.00;;;16.90;98.00;;;;;;5032062;28;20458;-70
2023/08/05 02:28:53;;;;;;;6.20;3.90;;;16.90;98.00;;;;;;5031963;28;20454;-70
2023/08/05 02:31:20;;;;;;;7.93;3.30;;;17.00;98.00;;;;;;5031534;28;20458;-71
2023/08/05 02:33:47;;;;;;;8.50;3.47;;;16.90;98.00;;;;;;5031905;28;20483;-70
2023/08/05 02:36:15;;;;;;;6.60;3.50;;;16.90;98.00;;;;;;5031966;28;20446;-70
2023/08/05 02:38:42;;;;;;;5.17;3.37;;;16.80;98.00;;;;;;5032177;28;20818;-71
2023/08/05 02:41:10;;;;;;;5.40;3.17;;;16.80;98.00;;;;;;5031855;28;20451;-71
2023/08/05 02:43:37;;;;;;;5.80;3.40;;;16.90;98.00;;;;;;5031691;28;20458;-70
2023/08/05 02:46:04;;;;;;;5.23;3.33;;;17.00;98.00;;;;;;5031864;28;20462;-70
2023/08/05 02:48:31;;;;;;;6.57;3.33;;;17.00;98.00;;;;;;5031913;28;20798;-71
2023/08/05 02:50:58;;;;;;;9.00;3.20;;;16.90;98.00;;;;;;5032032;28;21015;-70
2023/08/05 02:53:27;;;;;;;6.43;3.40;;;16.90;98.00;;;;;;5031708;28;20470;-70
2023/08/05 02:55:54;;;;;;;6.10;3.50;;;16.90;98.00;;;;;;5031853;28;21082;-71
2023/08/05 02:58:22;;;;;;;6.10;3.47;;;16.90;98.00;;;;;;5031942;28;20446;-71
2023/08/05 03:00:49;;;;;;;4.90;2.90;;;16.80;98.00;;;;;;5031701;28;20447;-70
2023/08/05 03:03:17;;;;;;;11.30;3.90;;;16.90;98.00;;;;;;5031552;28;20499;-70
2023/08/05 03:05:44;;;;;;;5.70;3.47;;;16.90;98.00;;;;;;5031475;28;20450;-71
2023/08/05 03:08:11;;;;;;;7.70;3.87;;;16.90;98.00;;;;;;5031296;28;20466;-70
2023/08/05 03:10:42;;;;;;;8.37;4.10;;;16.80;98.00;;;;;;5031912;28;20459;-70
2023/08/05 03:13:12;;;;;;;6.93;3.53;;;16.80;98.00;;;;;;5032393;28;20454;-71
2023/08/05 03:15:39;;;;;;;9.53;3.40;;;16.90;98.00;;;;;;5032486;28;20875;-71
2023/08/05 03:18:06;;;;;;;8.00;3.87;;;16.90;98.00;;;;;;5031218;28;20455;-70
2023/08/05 03:20:34;;;;;;;6.30;3.57;;;16.80;98.00;;;;;;5031709;28;20459;-71
2023/08/05 03:23:01;;;;;;;6.13;3.60;;;16.70;98.00;;;;;;5031812;28;20450;-71
2023/08/05 03:25:34;;;;;;;6.10;3.20;;;16.70;98.00;;;;;;5030953;28;20977;-70
2023/08/05 03:28:03;;;;;;;9.47;3.67;;;16.70;98.00;;;;;;5031530;28;20453;-70
2023/08/05 03:32:58;;;;;;;9.20;3.47;;;16.90;98.00;;;;;;4990308;28;20996;-69
2023/08/05 03:35:25;;;;;;;7.03;3.43;;;17.00;98.00;;;;;;4991887;28;20488;-68
2023/08/05 03:37:52;;;;;;;6.70;3.47;;;17.10;98.00;;;;;;4991944;28;20449;-68
2023/08/05 03:40:19;;;;;;;7.17;3.80;;;17.10;98.00;;;;;;4992021;28;20467;-68
2023/08/05 03:42:46;;;;;;;5.60;3.23;;;16.80;98.00;;;;;;4990787;28;20455;-68
2023/08/05 03:45:15;;;;;;;5.20;3.10;;;16.80;98.00;;;;;;4995774;28;20997;-66
2023/08/05 03:47:42;;;;;;;8.50;3.77;;;16.70;98.00;;;;;;4995767;28;20456;-66
2023/08/05 03:50:09;;;;;;;6.33;3.60;;;16.80;98.00;;;;;;4995797;28;20825;-65
2023/08/05 03:52:37;;;;;;;6.23;3.43;;;16.70;98.00;;;;;;4995912;28;20459;-65
2023/08/05 03:55:05;;;;;;;10.50;4.20;;;16.60;98.00;;;;;;4994465;28;20488;-66
2023/08/05 03:57:33;;;;;;;7.43;4.07;;;16.70;98.00;;;;;;4995857;28;20479;-66
2023/08/05 04:00:00;;;;;;;5.37;3.40;;;16.70;98.00;;;;;;4994267;28;20451;-66
2023/08/05 04:02:29;;;;;;;6.83;4.03;;;16.70;98.00;;;;;;4995749;28;20449;-65
2023/08/05 04:04:59;;;;;;;9.53;4.20;;;16.80;98.00;;;;;;4995363;28;20475;-66
2023/08/05 04:07:26;;;;;;;6.43;3.83;;;16.70;98.00;;;;;;4995704;28;20926;-65
2023/08/05 04:09:54;;;;;;;6.60;3.80;;;16.60;98.00;;;;;;4995590;28;20456;-65
2023/08/05 04:12:25;;;;;;;8.40;3.73;;;16.60;98.00;;;;;;4978183;28;20639;-65
2023/08/05 04:14:53;;;;;;;6.90;4.10;;;16.40;98.00;;;;;;4995283;28;20523;-65
2023/08/05 04:17:21;;;;;;;10.37;4.00;;;16.40;98.00;;;;;;4995192;28;20991;-65
2023/08/05 04:19:50;;;;;;;8.00;4.10;;;16.40;98.00;;;;;;4995134;28;20515;-66
2023/08/05 04:22:20;;;;;;;6.47;3.70;;;16.40;98.00;;;;;;4995159;28;20452;-66
2023/08/05 04:24:47;;;;;;;6.97;4.07;;;16.50;98.00;;;;;;4995018;28;20876;-66
2023/08/05 04:27:14;;;;;;;14.13;3.93;;;16.50;98.00;;;;;;4993820;28;20464;-66
2023/08/05 04:29:42;;;;;;;12.70;4.70;;;16.60;98.00;;;;;;4994855;28;20447;-65
2023/08/05 04:32:09;;;;;;;7.43;4.10;;;16.50;98.00;;;;;;4995060;28;20491;-65
2023/08/05 04:34:37;;;;;;;6.50;3.87;;;16.70;98.00;;;;;;4995025;28;20507;-66
2023/08/05 04:37:18;;;;;;;9.40;4.03;;;16.70;98.00;;;;;;4995028;28;20454;-65
2023/08/05 04:39:45;;;;;;;8.30;3.83;;;16.60;98.00;;;;;;4994568;28;20469;-65
2023/08/05 04:42:12;;;;;;;7.33;3.60;;;16.70;98.00;;;;;;4994800;28;20456;-66
2023/08/05 04:44:41;;;;;;;5.03;2.93;;;16.70;98.00;;;;;;4994548;28;20456;-65
2023/08/05 04:47:08;;;;;;;14.00;4.13;;;16.60;98.00;;;;;;4994611;28;20488;-66
2023/08/05 04:49:35;;;;;;;6.07;3.53;;;16.60;98.00;;;;;;4994635;28;20957;-65
2023/08/05 04:52:05;;;;;;;7.57;4.20;;;16.60;98.00;;;;;;4993478;28;20460;-66
2023/08/05 04:54:37;;;;;;;10.60;3.40;;;16.70;98.00;;;;;;4992670;28;20842;-65
2023/08/05 04:57:05;;;;;;;8.67;4.10;;;16.70;98.00;;;;;;4994517;28;20508;-66
2023/08/05 04:59:32;;;;;;;11.00;3.63;;;16.60;98.00;;;;;;4994142;28;20457;-66
2023/08/05 05:02:00;;;;;;;8.30;4.10;;;16.70;98.00;;;;;;4994504;28;20471;-66
2023/08/05 05:04:27;;;;;;;6.17;3.33;;;16.60;98.00;;;;;;4994280;28;20457;-66
2023/08/05 05:06:54;;;;;;;5.97;3.73;;;16.60;98.00;;;;;;4993260;28;20457;-66
2023/08/05 05:09:21;;;;;;;6.43;3.77;;;16.70;98.00;;;;;;4994237;28;20452;-65
2023/08/05 05:11:50;;;;;;;7.07;3.90;;;16.80;98.00;;;;;;4994198;28;20484;-66
2023/08/05 05:14:18;;;;;;;7.10;4.13;;;16.80;98.00;;;;;;4993937;28;20507;-66
2023/08/05 05:16:45;;;;;;;7.00;3.80;;;16.80;98.00;;;;;;4994156;28;20456;-65
2023/08/05 05:19:12;;;;;;;6.93;3.80;;;16.90;98.00;;;;;;4993935;28;20452;-65
2023/08/05 05:21:39;;;;;;;7.50;3.83;;;16.80;98.00;;;;;;4994324;28;20460;-66
2023/08/05 05:24:06;;;;;;;7.00;3.67;;;16.70;98.00;;;;;;4994271;28;20453;-66
2023/08/05 05:26:33;;;;;;;9.57;4.60;;;16.50;98.00;;;;;;4994366;28;20463;-66
2023/08/05 05:29:02;;;;;;;5.00;3.17;;;16.50;98.00;;;;;;4992960;28;20457;-65
2023/08/05 05:31:29;;;;;;;8.83;4.30;;;16.60;98.00;;;;;;4992640;28;20946;-65
2023/08/05 05:33:59;;;;;;;8.13;4.10;;;16.60;98.00;;;;;;4993909;28;20475;-65
2023/08/05 05:36:26;;;;;;;6.20;3.30;;;16.60;98.00;;;;;;4993933;28;20484;-65
2023/08/05 05:38:53;;;;;;;5.57;3.67;;;16.60;98.00;;;;;;4993707;28;20449;-65
2023/08/05 05:41:20;;;;;;;6.33;3.90;;;16.60;98.00;;;;;;4993784;28;20464;-68
2023/08/05 05:43:47;;;;;;;13.30;3.90;;;16.60;98.00;;;;;;4992376;28;20468;-66
2023/08/05 05:46:17;;;;;;;9.17;4.00;;;16.70;98.00;;;;;;4993767;28;20945;-65
2023/08/05 05:48:44;;;;;;;6.43;3.90;;;16.90;98.00;;;;;;4993562;28;20441;-65
2023/08/05 05:51:11;;;;;;;9.33;4.10;;;16.90;98.00;;;;;;5222018;22;20486;-65
2023/08/05 05:53:38;;;;;;;8.17;4.10;;;17.00;98.00;;;;;;5033420;28;20810;-65
2023/08/05 05:56:06;;;;;;;7.47;3.90;;;16.90;98.00;;;;;;5033096;28;20482;-65
2023/08/05 05:58:35;;;;;;;9.37;4.50;;;16.80;98.00;;;;;;5032828;28;20478;-65
2023/08/05 06:01:02;;;;;;;6.13;3.50;;;16.80;98.00;;;;;;5032902;28;20524;-65
2023/08/05 06:03:33;;;;;;;10.80;4.10;;;16.90;98.00;;;;;;5032670;28;20474;-65
2023/08/05 06:06:00;;;;;;;8.13;4.30;;;16.90;98.00;;;;;;5031639;28;20447;-65
2023/08/05 06:08:27;;;;;;;8.97;4.03;;;16.90;98.00;;;;;;5032505;28;20547;-65
2023/08/05 06:10:54;;;;;;;8.33;4.00;;;16.90;98.00;;;;;;5032401;28;20944;-65
2023/08/05 06:13:22;;;;;;;12.63;4.20;;;16.90;98.00;;;;;;5032267;28;20454;-65
2023/08/05 06:15:53;;;;;;;7.47;3.90;;;16.90;98.00;;;;;;5032295;28;20872;-65
2023/08/05 06:18:21;;;;;;;7.40;4.00;;;17.00;98.00;;;;;;5032451;28;20455;-65
2023/08/05 06:20:50;;;;;;;6.57;4.10;;;17.10;98.00;;;;;;5032325;28;20458;-65
2023/08/05 06:23:17;;;;;;;12.90;4.30;;;17.10;98.00;;;;;;5032802;28;20830;-65
2023/08/05 06:25:45;;;;;;;7.00;4.23;;;17.00;98.00;;;;;;5032165;28;20474;-65
2023/08/05 06:28:12;;;;;;;7.60;3.80;;;17.00;98.00;;;;;;5031991;28;20452;-65
2023/08/05 06:30:44;;;;;;;7.40;3.60;;;16.90;98.00;;;;;;5032105;28;20462;-65
2023/08/05 06:33:11;;;;;;;7.80;4.20;;;16.80;98.00;;;;;;5031965;28;20530;-66
2023/08/05 06:35:38;;;;;;;10.60;4.47;;;16.90;98.00;;;;;;5031912;28;20481;-66
2023/08/05 06:38:07;;;;;;;7.40;3.77;;;17.00;98.00;;;;;;5032196;28;20975;-66
2023/08/05 06:40:34;;;;;;;7.10;4.00;;;17.00;98.00;;;;;;5031895;28;20466;-66
2023/08/05 06:43:01;;;;;;;6.03;3.73;;;17.00;98.00;;;;;;4998039;28;21037;-66
2023/08/05 06:45:29;;;;;;;6.97;4.10;;;17.20;98.00;;;;;;5031734;28;20447;-66
2023/08/05 06:47:56;;;;;;;7.40;4.43;;;17.20;98.00;;;;;;5032093;28;20951;-66
2023/08/05 06:50:23;;;;;;;9.00;4.03;;;17.30;98.00;;;;;;5031889;28;20471;-66
2023/08/05 06:52:50;;;;;;;8.10;4.30;;;17.30;98.00;;;;;;5014356;28;20466;-66
2023/08/05 06:55:21;;;;;;;5.73;3.60;;;17.40;98.00;;;;;;5031502;28;20482;-66
2023/08/05 06:57:48;;;;;;;7.80;3.90;;;17.40;98.00;;;;;;5031539;28;20509;-66
2023/08/05 07:00:16;;;;;;;5.80;3.70;;;17.40;98.00;;;;;;5014212;28;20473;-66
2023/08/05 07:02:44;;;;;;;7.33;4.23;;;17.40;98.00;;;;;;5031651;28;20494;-66
2023/08/05 07:05:11;;;;;;;7.50;4.13;;;17.50;98.00;;;;;;5031379;28;20478;-65
2023/08/05 07:07:38;;;;;;;8.07;4.43;;;17.60;98.00;;;;;;5031488;28;20454;-67
2023/08/05 07:10:07;;;;;;;6.97;4.20;;;17.60;98.00;;;;;;5031316;28;20952;-66
2023/08/05 07:12:36;;;;;;;8.00;4.23;;;17.60;98.00;;;;;;5031527;28;20456;-66
2023/08/05 07:15:04;;;;;;;6.97;3.80;;;17.70;98.00;;;;;;5031475;28;20886;-66
2023/08/05 07:17:33;;;;;;;5.93;3.70;;;17.80;98.00;;;;;;5031458;28;20478;-66
2023/08/05 07:20:00;;;;;;;6.43;4.03;;;17.80;98.00;;;;;;5031347;28;20509;-66
2023/08/05 07:22:27;;;;;;;6.53;3.80;;;17.90;98.00;;;;;;5031436;28;20454;-66
2023/08/05 07:24:55;;;;;;;9.27;5.00;;;18.00;98.00;;;;;;5031144;28;20466;-66
2023/08/05 07:27:22;;;;;;;8.70;3.97;;;18.00;98.00;;;;;;5031219;28;20554;-66
2023/08/05 07:29:50;;;;;;;8.17;3.90;;;18.00;98.00;;;;;;5030856;28;20458;-67
2023/08/05 07:32:17;;;;;;;8.57;4.40;;;18.10;98.00;;;;;;5018970;28;20462;-67
2023/08/05 07:34:47;;;;;;;11.23;4.17;;;18.20;98.00;;;;;;5030757;28;20458;-66
2023/08/05 07:37:14;;;;;;;7.33;4.17;;;18.20;98.00;;;;;;5045252;28;20872;-66
2023/08/05 07:39:47;;;;;;;6.70;4.17;;;18.30;98.00;;;;;;5050798;28;20470;-66
2023/08/05 07:42:15;;;;;;;9.17;4.33;;;18.40;98.00;;;;;;5017569;28;20493;-67
2023/08/05 07:44:42;;;;;;;9.63;4.10;;;18.50;98.00;;;;;;5033436;28;20460;-66
2023/08/05 07:47:11;;;;;;;8.27;4.70;;;18.40;98.00;;;;;;5050983;28;20446;-66
2023/08/05 07:49:40;;;;;;;8.23;4.47;;;18.50;98.00;;;;;;5050757;28;20504;-66
2023/08/05 07:52:07;;;;;;;11.13;4.33;;;18.50;98.00;;;;;;5050839;28;20465;-66
2023/08/05 07:54:34;;;;;;;8.77;4.40;;;18.60;98.00;;;;;;5051021;28;20461;-66
2023/08/05 07:57:01;;;;;;;8.30;4.67;;;18.40;98.00;;;;;;5038086;28;20517;-67
2023/08/05 07:59:30;;;;;;;6.77;4.37;;;18.30;98.00;;;;;;5030795;28;20465;-66
2023/08/05 08:01:57;;;;;;;8.10;4.30;;;18.20;98.00;;;;;;5030885;28;20761;-67
2023/08/05 08:04:27;;;;;;;6.57;4.07;;;18.20;98.00;;;;;;5030616;28;20461;-66
2023/08/05 08:06:56;;;;;;;9.10;4.07;;;18.30;98.00;;;;;;5030677;28;20875;-66
2023/08/05 08:09:23;;;;;;;8.33;4.10;;;18.30;98.00;;;;;;5038135;28;20454;-66
2023/08/05 08:11:50;;;;;;;8.10;4.00;;;18.40;98.00;;;;;;5032968;28;20817;-66
2023/08/05 08:14:17;;;;;;;5.80;3.87;;;18.30;98.00;;;;;;5035558;28;20902;-66
2023/08/05 08:16:44;;;;;;;9.63;4.00;;;18.30;98.00;;;;;;5030645;28;20498;-67
2023/08/05 08:19:13;;;;;;;7.17;4.10;;;18.20;98.00;;;;;;5030490;28;20459;-66
2023/08/05 08:21:41;;;;;;;6.10;3.70;;;18.30;98.00;;;;;;5030338;28;20486;-67
2023/08/05 08:24:08;;;;;;;6.60;4.17;;;18.30;98.00;;;;;;5030618;28;20965;-66
2023/08/05 08:26:35;;;;;;;8.50;4.50;;;18.30;98.00;;;;;;5030637;28;20458;-66
2023/08/05 08:29:02;;;;;;;6.17;3.80;;;18.30;98.00;;;;;;5030902;28;20493;-67
2023/08/05 08:31:31;;;;;;;7.37;4.33;;;18.40;98.00;;;;;;5018892;28;20558;-67
2023/08/05 08:34:06;;;;;;;6.30;3.90;;;18.30;98.00;;;;;;5036457;28;20449;-66
2023/08/05 08:36:33;;;;;;;10.83;4.47;;;18.40;98.00;;;;;;5053886;28;20489;-66
2023/08/05 08:39:04;;;;;;;7.03;3.90;;;18.50;98.00;;;;;;5036121;28;20462;-66
2023/08/05 08:41:36;;;;;;;8.77;4.47;;;18.60;98.00;;;;;;5053820;28;20543;-67
2023/08/05 08:44:04;;;;;;;5.90;3.83;;;18.80;98.00;;;;;;5053853;28;20450;-66
2023/08/05 08:46:32;;;;;;;6.40;3.77;;;19.10;98.00;;;;;;5053946;28;20446;-67
2023/08/05 08:48:59;;;;;;;7.07;3.70;;;19.50;98.00;;;;;;5054343;28;20530;-66
2023/08/05 08:54:04;;;;;;;7.83;4.00;;;19.80;98.00;;;;;;5013400;28;21008;-66
2023/08/05 08:56:32;;;;;;;6.27;3.70;;;20.00;98.00;;;;;;5013760;28;20490;-66
2023/08/05 08:59:00;;;;;;;7.57;4.07;;;20.10;98.00;;;;;;5014247;28;20456;-66
2023/08/05 09:01:28;;;;;;;11.57;4.73;;;20.10;98.00;;;;;;5013274;28;20852;-66
2023/08/05 09:03:56;;;;;;;9.70;4.10;;;20.20;98.00;;;;;;5014194;28;20483;-66
2023/08/05 09:06:24;;;;;;;7.33;4.20;;;20.20;98.00;;;;;;5014225;28;20836;-66
2023/08/05 09:08:51;;;;;;;8.47;4.20;;;20.30;98.00;;;;;;5013027;28;20483;-67
2023/08/05 09:11:19;;;;;;;7.43;4.07;;;20.50;98.00;;;;;;5014101;28;20480;-66
2023/08/05 09:13:46;;;;;;;6.67;4.10;;;20.60;98.00;;;;;;5013820;28;20455;-67
2023/08/05 09:16:14;;;;;;;6.20;4.10;;;20.80;98.00;;;;;;5013745;28;20541;-66
2023/08/05 09:18:44;;;;;;;6.13;3.97;;;20.80;98.00;;;;;;5013642;28;20479;-67
2023/08/05 09:21:12;;;;;;;8.63;4.47;;;20.70;98.00;;;;;;5013722;28;20741;-66
2023/08/05 09:23:46;;;;;;;5.67;3.97;;;20.90;98.00;;;;;;5013515;28;20475;-66
2023/08/05 09:26:13;;;;;;;5.30;3.80;;;21.10;98.00;;;;;;5013674;28;20534;-66
2023/08/05 09:28:42;;;;;;;5.40;3.60;;;20.90;98.00;;;;;;5013364;28;20452;-66
2023/08/05 09:31:12;;;;;;;5.40;3.47;;;20.60;98.00;;;;;;5013647;28;20833;-67
2023/08/05 09:33:41;;;;;;;5.87;3.57;;;20.40;98.00;;;;;;5013493;28;20487;-66
2023/08/05 09:36:12;;;;;;;6.83;3.50;;;20.60;98.00;;;;;;5013437;28;20594;-66
2023/08/05 09:38:40;;;;;;;5.17;3.60;;;20.80;98.00;;;;;;5013250;28;20455;-67
2023/08/05 09:41:08;;;;;;;5.70;4.00;;;20.90;98.00;;;;;;5013210;28;20509;-66
2023/08/05 09:43:40;;;;;;;4.60;3.23;;;21.10;98.00;;;;;;5013199;28;20459;-67
2023/08/05 09:46:12;;;;;;;5.50;3.40;;;21.50;98.00;;;;;;5013208;28;20451;-66
2023/08/05 09:48:43;;;;;;;5.77;3.67;;;21.80;98.00;;;;;;5013222;28;20458;-67
2023/08/05 09:51:16;;;;;;;6.20;4.00;;;21.80;98.00;;;;;;5013058;28;20455;-66
2023/08/05 09:53:46;;;;;;;4.83;3.43;;;21.60;98.00;;;;;;4995881;28;20471;-67
2023/08/05 09:56:15;;;;;;;4.87;3.40;;;21.60;98.00;;;;;;5013160;28;20509;-66
2023/08/05 09:58:44;;;;;;;4.80;3.37;;;21.60;98.00;;;;;;5012942;28;20452;-66
2023/08/05 10:01:13;;;;;;;5.20;3.60;;;21.50;98.00;;;;;;5012943;28;20467;-67
2023/08/05 10:03:40;;;;;;;7.10;3.17;;;21.50;98.00;;;;;;5013127;28;20486;-66
2023/08/05 10:06:09;;;;;;;4.10;3.13;;;21.40;98.00;;;;;;5011674;28;20941;-66
2023/08/05 10:08:36;;;;;;;5.27;3.43;;;21.20;98.00;;;;;;5011637;28;20477;-67
2023/08/05 10:11:05;;;;;;;4.67;3.33;;;21.10;98.00;;;;;;5011557;28;20491;-67
2023/08/05 10:13:38;;;;;;;5.33;3.20;;;21.40;98.00;;;;;;5012593;28;20510;-67
2023/08/05 10:16:08;;;;;;;4.57;3.07;;;21.60;98.00;;;;;;5012772;28;20491;-67
2023/08/05 10:18:39;;;;;;;4.37;3.17;;;21.90;98.00;;;;;;5011026;28;20483;-66
2023/08/05 10:21:08;;;;;;;5.37;3.70;;;22.00;98.00;;;;;;5012446;28;20510;-67
2023/08/05 10:23:36;;;;;;;5.17;3.27;;;22.10;98.00;;;;;;5011105;28;21008;-67
2023/08/05 10:26:05;;;;;;;5.80;3.50;;;22.00;98.00;;;;;;5012277;28;20460;-66
2023/08/05 10:28:42;;;;;;;5.10;3.40;;;21.80;98.00;;;;;;5012300;28;20451;-67
2023/08/05 10:31:28;;;;;;;5.57;3.20;;;21.90;98.00;;;;;;5012460;28;20789;-66
2023/08/05 10:34:18;;;;;;;4.23;3.10;;;21.90;98.00;;;;;;5010664;28;20448;-66
2023/08/05 10:36:47;;;;;;;4.43;3.50;;;21.90;98.00;;;;;;5011726;28;21207;-67
2023/08/05 10:39:42;;;;;;;6.97;3.60;;;21.90;98.00;;;;;;5011616;28;20453;-67
2023/08/05 10:42:35;;;;;;;7.63;3.70;;;21.60;98.00;;;;;;5002530;28;20538;-67
2023/08/05 10:45:05;;;;;;;5.90;3.50;;;21.50;98.00;;;;;;5010514;28;20487;-67
2023/08/05 10:47:33;;;;;;;5.77;3.83;;;21.50;98.00;;;;;;5011965;28;20510;-67
2023/08/05 10:50:03;;;;;;;5.70;3.90;;;21.70;98.00;;;;;;5011627;28;20460;-66
2023/08/05 10:52:36;;;;;;;5.20;3.53;;;21.80;98.00;;;;;;5011289;28;20474;-66
2023/08/05 10:55:03;;;;;;;4.57;3.10;;;21.90;98.00;;;;;;5014601;28;20459;-67
2023/08/05 10:57:48;;;;;;;5.40;3.60;;;22.10;98.00;;;;;;5013134;28;20518;-68
2023/08/05 11:00:21;;;;;;;6.83;3.80;;;22.20;98.00;;;;;;5010275;28;20473;-67
2023/08/05 11:02:49;;;;;;;5.90;3.83;;;22.00;98.00;;;;;;5011648;28;20808;-67
2023/08/05 11:05:18;;;;;;;4.60;3.10;;;22.00;98.00;;;;;;5011544;28;20459;-67
2023/08/05 11:07:46;;;;;;;5.57;3.40;;;22.10;98.00;;;;;;5011693;28;20459;-68
2023/08/05 11:10:13;;;;;;;5.73;3.00;;;22.30;98.00;;;;;;5010371;28;20535;-67
2023/08/05 11:12:41;;;;;;;4.57;3.30;;;22.40;98.00;;;;;;5011413;28;20455;-67
2023/08/05 11:15:09;;;;;;;3.83;3.00;;;22.50;98.00;;;;;;5011437;28;20459;-67
2023/08/05 11:17:54;;;;;;;4.50;3.27;;;22.60;98.00;;;;;;5011302;28;20578;-67
2023/08/05 11:20:31;;;;;;;5.73;3.43;;;22.80;98.00;;;;;;5011686;28;20490;-67
2023/08/05 11:22:59;;;;;;;5.40;3.33;;;22.90;98.00;;;;;;5011507;28;20479;-67
2023/08/05 11:25:26;;;;;;;5.93;4.10;;;23.20;98.00;;;;;;5011559;28;20452;-67
2023/08/05 11:27:54;;;;;;;4.40;2.97;;;23.60;98.00;;;;;;5011180;28;20459;-68
2023/08/05 11:30:22;;;;;;;4.70;3.17;;;24.10;98.00;;;;;;5011160;28;20818;-67
2023/08/05 11:32:50;;;;;;;3.80;2.83;;;24.50;98.00;;;;;;5011538;28;20456;-68
2023/08/05 11:35:18;;;;;;;5.40;2.90;;;24.60;98.00;;;;;;5011181;28;20543;-68
2023/08/05 11:37:46;;;;;;;5.53;3.20;;;24.80;98.00;;;;;;5011391;28;20487;-68
2023/08/05 11:40:14;;;;;;;3.40;2.90;;;24.40;98.00;;;;;;5011314;28;20996;-68
2023/08/05 11:42:41;;;;;;;4.83;3.23;;;24.50;98.00;;;;;;5011387;28;20458;-68
2023/08/05 11:45:12;;;;;;;4.87;3.03;;;24.70;98.00;;;;;;5011229;28;20455;-68
2023/08/05 11:47:39;;;;;;;3.63;2.97;;;24.80;98.00;;;;;;5011365;28;20451;-67
2023/08/05 11:50:10;;;;;;;3.27;2.70;;;25.30;98.00;;;;;;5011253;28;20463;-69
2023/08/05 11:52:40;;;;;;;3.87;3.00;;;25.80;98.00;;;;;;5011921;28;20953;-68
2023/08/05 11:55:10;;;;;;;4.43;3.10;;;26.20;96.80;;;;;;5011601;28;20487;-67
2023/08/05 11:57:37;;;;;;;3.60;3.00;;;26.30;96.10;;;;;;5011230;28;20491;-67
2023/08/05 12:00:06;;;;;;;3.90;3.10;;;26.10;96.60;;;;;;5011140;28;20856;-68
2023/08/05 12:02:35;;;;;;;3.70;2.90;;;25.80;95.50;;;;;;5011303;28;20452;-68
2023/08/05 12:05:02;;;;;;;3.47;3.00;;;25.40;96.50;;;;;;5013046;28;20513;-68
2023/08/05 12:07:30;;;;;;;3.43;2.70;;;25.10;98.00;;;;;;5013668;28;20463;-68
2023/08/05 12:10:10;;;;;;;5.63;3.23;;;24.80;98.00;;;;;;5013515;28;20459;-68
2023/08/05 12:12:37;;;;;;;4.00;2.83;;;24.50;98.00;;;;;;5014686;28;20514;-68
2023/08/05 12:15:11;;;;;;;5.60;3.40;;;24.20;98.00;;;;;;5014493;28;20459;-68
2023/08/05 12:17:38;;;;;;;5.50;3.20;;;24.30;98.00;;;;;;5014764;28;20525;-68
2023/08/05 12:20:10;;;;;;;4.03;3.13;;;24.50;98.00;;;;;;5014638;28;20443;-68
2023/08/05 12:22:37;;;;;;;4.00;2.97;;;24.70;98.00;;;;;;5014749;28;20546;-68
2023/08/05 12:25:05;;;;;;;6.47;3.30;;;24.70;98.00;;;;;;5014696;28;20517;-68
2023/08/05 12:27:33;;;;;;;4.40;3.10;;;24.80;98.00;;;;;;5014445;28;21032;-68
2023/08/05 12:30:00;;;;;;;3.83;2.70;;;24.90;98.00;;;;;;5014346;28;20447;-67
2023/08/05 12:32:27;;;;;;;4.90;3.13;;;24.90;97.70;;;;;;5013253;28;20455;-68
2023/08/05 12:34:54;;;;;;;5.30;3.20;;;24.80;96.30;;;;;;5014239;28;20443;-68
2023/08/05 12:37:22;;;;;;;3.90;2.90;;;24.70;96.80;;;;;;5014777;28;20490;-68
2023/08/05 12:39:49;;;;;;;4.30;2.93;;;24.80;95.50;;;;;;5014516;28;20824;-68
2023/08/05 12:42:16;;;;;;;4.80;2.67;;;25.20;97.60;;;;;;5014487;28;20466;-69
2023/08/05 12:44:45;;;;;;;3.40;2.50;;;25.60;96.60;;;;;;5013324;28;20542;-67
2023/08/05 12:47:12;;;;;;;5.90;3.10;;;26.00;98.00;;;;;;5014422;28;20885;-68
2023/08/05 12:49:39;;;;;;;5.00;3.23;;;26.20;95.10;;;;;;5014140;28;20444;-67
2023/08/05 12:52:07;;;;;;;4.90;2.63;;;26.30;97.50;;;;;;5014238;28;20486;-67
2023/08/05 12:54:37;;;;;;;3.83;2.93;;;26.00;93.40;;;;;;5013877;28;20451;-67
2023/08/05 12:57:04;;;;;;;5.13;3.20;;;25.50;93.60;;;;;;5013855;28;20832;-66